createdAt,value
2018-12-23T00:00:35.824Z,1005.7
2018-12-23T00:01:37.958Z,1005.7
2018-12-23T00:02:40.099Z,1005.7
2018-12-23T00:03:42.247Z,1005.7
2018-12-23T00:04:44.413Z,1005.7
2018-12-23T00:05:46.541Z,1005.7
2018-12-23T00:06:48.671Z,1005.7
2018-12-23T00:07:50.955Z,1005.7
2018-12-23T00:08:54.196Z,1005.7
2018-12-23T00:09:56.332Z,1005.7
2018-12-23T00:10:58.467Z,1005.7
2018-12-23T00:12:00.735Z,1005.7
2018-12-23T00:13:02.899Z,1005.7
2018-12-23T00:14:05.430Z,1005.7
2018-12-23T00:15:07.549Z,1005.7
2018-12-23T00:16:09.596Z,1005.7
2018-12-23T00:17:11.908Z,1005.7
2018-12-23T00:18:13.965Z,1005.7
2018-12-23T00:19:16.004Z,1005.7
2018-12-23T00:20:18.039Z,1005.6
2018-12-23T00:21:20.097Z,1005.6
2018-12-23T00:22:22.149Z,1005.5
2018-12-23T00:23:24.223Z,1005.4
2018-12-23T00:24:26.291Z,1005.4
2018-12-23T00:25:28.355Z,1005.4
2018-12-23T00:26:30.415Z,1005.4
2018-12-23T00:27:32.471Z,1005.4
2018-12-23T00:28:34.505Z,1005.4
2018-12-23T00:29:36.580Z,1005.4
2018-12-23T00:30:38.631Z,1005.5
2018-12-23T00:31:40.668Z,1005.5
2018-12-23T00:32:42.845Z,1005.4
2018-12-23T00:33:45.195Z,1005.4
2018-12-23T00:34:47.251Z,1005.4
2018-12-23T00:35:49.302Z,1005.4
2018-12-23T00:36:51.380Z,1005.4
2018-12-23T00:37:53.440Z,1005.4
2018-12-23T00:38:55.776Z,1005.5
2018-12-23T00:39:57.818Z,1005.6
2018-12-23T00:40:59.867Z,1005.6
2018-12-23T00:42:01.902Z,1005.7
2018-12-23T00:43:03.951Z,1005.6
2018-12-23T00:44:06.003Z,1005.6
2018-12-23T00:45:08.031Z,1005.6
2018-12-23T00:46:10.107Z,1005.6
2018-12-23T00:47:12.210Z,1005.6
2018-12-23T00:48:14.410Z,1005.5
2018-12-23T00:49:16.468Z,1005.6
2018-12-23T00:50:18.511Z,1005.7
2018-12-23T00:51:20.572Z,1005.7
2018-12-23T00:52:22.613Z,1005.7
2018-12-23T00:53:24.660Z,1005.7
2018-12-23T00:54:26.731Z,1005.7
2018-12-23T00:55:28.790Z,1005.7
2018-12-23T00:56:30.835Z,1005.7
2018-12-23T00:57:32.915Z,1005.7
2018-12-23T00:58:35.082Z,1005.7
2018-12-23T00:59:37.157Z,1005.7
2018-12-23T01:00:39.602Z,1005.7
2018-12-23T01:01:41.658Z,1005.6
2018-12-23T01:02:43.696Z,1005.7
2018-12-23T01:03:45.768Z,1005.8
2018-12-23T01:04:47.833Z,1005.7
2018-12-23T01:05:50.159Z,1005.7
2018-12-23T01:06:52.224Z,1005.7
2018-12-23T01:07:54.276Z,1005.6
2018-12-23T01:08:56.342Z,1005.7
2018-12-23T01:09:58.408Z,1005.6
2018-12-23T01:11:00.449Z,1005.6
2018-12-23T01:12:02.806Z,1005.6
2018-12-23T01:13:04.871Z,1005.7
2018-12-23T01:14:07.303Z,1005.7
2018-12-23T01:15:09.804Z,1005.7
2018-12-23T01:16:11.865Z,1005.7
2018-12-23T01:17:14.028Z,1005.7
2018-12-23T01:18:16.071Z,1005.7
2018-12-23T01:19:18.139Z,1005.7
2018-12-23T01:20:20.567Z,1005.7
2018-12-23T01:21:22.602Z,1005.7
2018-12-23T01:22:24.648Z,1005.7
2018-12-23T01:23:27.095Z,1005.7
2018-12-23T01:24:29.137Z,1005.7
2018-12-23T01:25:31.288Z,1005.7
2018-12-23T01:26:33.351Z,1005.7
2018-12-23T01:27:35.400Z,1005.7
2018-12-23T01:28:37.443Z,1005.8
2018-12-23T01:29:39.778Z,1005.8
2018-12-23T01:30:41.809Z,1005.8
2018-12-23T01:31:43.936Z,1005.8
2018-12-23T01:32:46.004Z,1005.8
2018-12-23T01:33:48.037Z,1005.9
2018-12-23T01:34:50.070Z,1005.8
2018-12-23T01:35:52.111Z,1005.8
2018-12-23T01:36:54.861Z,1005.8
2018-12-23T01:37:56.889Z,1005.8
2018-12-23T01:38:59.038Z,1005.8
2018-12-23T01:40:01.101Z,1005.8
2018-12-23T01:41:04.763Z,1005.8
2018-12-23T01:42:06.799Z,1005.8
2018-12-23T01:43:09.135Z,1005.7
2018-12-23T01:44:11.194Z,1005.8
2018-12-23T01:45:13.249Z,1005.8
2018-12-23T01:46:15.582Z,1005.8
2018-12-23T01:47:17.641Z,1005.7
2018-12-23T01:48:19.696Z,1005.7
2018-12-23T01:49:21.755Z,1005.7
2018-12-23T01:50:23.796Z,1005.7
2018-12-23T01:51:25.877Z,1005.7
2018-12-23T01:52:28.231Z,1005.8
2018-12-23T01:53:30.278Z,1005.8
2018-12-23T01:54:32.343Z,1005.7
2018-12-23T01:55:34.373Z,1005.8
2018-12-23T01:56:36.840Z,1005.8
2018-12-23T01:57:39.175Z,1005.8
2018-12-23T01:58:41.280Z,1005.8
2018-12-23T01:59:43.348Z,1005.8
2018-12-23T02:00:45.382Z,1005.8
2018-12-23T02:01:47.435Z,1005.8
2018-12-23T02:02:49.491Z,1005.9
2018-12-23T02:03:51.846Z,1005.8
2018-12-23T02:04:53.882Z,1005.8
2018-12-23T02:05:56.009Z,1005.9
2018-12-23T02:06:58.058Z,1005.8
2018-12-23T02:08:00.119Z,1005.9
2018-12-23T02:09:02.186Z,1005.8
2018-12-23T02:10:04.245Z,1005.8
2018-12-23T02:11:06.295Z,1005.8
2018-12-23T02:12:08.342Z,1005.8
2018-12-23T02:13:10.415Z,1005.8
2018-12-23T02:14:12.445Z,1005.8
2018-12-23T02:15:14.483Z,1005.8
2018-12-23T02:16:16.832Z,1005.8
2018-12-23T02:17:19.166Z,1005.8
2018-12-23T02:18:21.237Z,1005.8
2018-12-23T02:19:23.349Z,1005.7
2018-12-23T02:20:25.406Z,1005.8
2018-12-23T02:21:27.471Z,1005.7
2018-12-23T02:22:29.521Z,1005.7
2018-12-23T02:23:31.582Z,1005.7
2018-12-23T02:24:33.630Z,1005.7
2018-12-23T02:25:35.709Z,1005.7
2018-12-23T02:26:37.767Z,1005.7
2018-12-23T02:27:39.787Z,1005.7
2018-12-23T02:28:41.846Z,1005.7
2018-12-23T02:29:43.903Z,1005.7
2018-12-23T02:30:45.969Z,1005.7
2018-12-23T02:31:48.049Z,1005.6
2018-12-23T02:32:50.195Z,1005.6
2018-12-23T02:33:52.254Z,1005.7
2018-12-23T02:34:54.299Z,1005.6
2018-12-23T02:35:56.371Z,1005.6
2018-12-23T02:36:58.437Z,1005.6
2018-12-23T02:38:00.583Z,1005.6
2018-12-23T02:39:02.654Z,1005.5
2018-12-23T02:40:04.837Z,1005.5
2018-12-23T02:41:06.892Z,1005.5
2018-12-23T02:42:09.665Z,1005.5
2018-12-23T02:43:11.737Z,1005.5
2018-12-23T02:44:14.083Z,1005.5
2018-12-23T02:45:16.168Z,1005.5
2018-12-23T02:46:18.224Z,1005.5
2018-12-23T02:47:20.298Z,1005.5
2018-12-23T02:48:22.412Z,1005.5
2018-12-23T02:49:24.485Z,1005.4
2018-12-23T02:50:26.979Z,1005.5
2018-12-23T02:51:29.036Z,1005.5
2018-12-23T02:52:31.092Z,1005.5
2018-12-23T02:53:33.120Z,1005.5
2018-12-23T02:54:35.177Z,1005.5
2018-12-23T02:55:37.221Z,1005.5
2018-12-23T02:56:39.575Z,1005.5
2018-12-23T02:57:41.629Z,1005.5
2018-12-23T02:58:43.690Z,1005.4
2018-12-23T02:59:45.717Z,1005.4
2018-12-23T03:00:48.026Z,1005.4
2018-12-23T03:01:50.370Z,1005.4
2018-12-23T03:02:52.737Z,1005.5
2018-12-23T03:03:54.823Z,1005.4
2018-12-23T03:04:56.899Z,1005.5
2018-12-23T03:06:06.534Z,1005.4
2018-12-23T03:07:08.639Z,1005.4
2018-12-23T03:08:11.089Z,1005.4
2018-12-23T03:09:13.159Z,1005.4
2018-12-23T03:10:15.210Z,1005.4
2018-12-23T03:11:17.586Z,1005.4
2018-12-23T03:12:19.662Z,1005.3
2018-12-23T03:13:22.292Z,1005.3
2018-12-23T03:14:24.341Z,1005.3
2018-12-23T03:15:26.894Z,1005.3
2018-12-23T03:16:29.225Z,1005.3
2018-12-23T03:17:31.286Z,1005.3
2018-12-23T03:18:33.750Z,1005.3
2018-12-23T03:19:36.197Z,1005.3
2018-12-23T03:20:38.280Z,1005.3
2018-12-23T03:21:40.315Z,1005.3
2018-12-23T03:22:42.675Z,1005.3
2018-12-23T03:23:45.291Z,1005.3
2018-12-23T03:24:47.480Z,1005.3
2018-12-23T03:25:49.540Z,1005.3
2018-12-23T03:26:51.571Z,1005.3
2018-12-23T03:27:53.699Z,1005.3
2018-12-23T03:28:55.785Z,1005.2
2018-12-23T03:29:57.833Z,1005.2
2018-12-23T03:30:59.982Z,1005.3
2018-12-23T03:32:03.124Z,1005.2
2018-12-23T03:33:05.273Z,1005.3
2018-12-23T03:34:08.085Z,1005.2
2018-12-23T03:35:10.516Z,1005.2
2018-12-23T03:36:15.641Z,1005.2
2018-12-23T03:37:17.989Z,1005.2
2018-12-23T03:38:20.626Z,1005.2
2018-12-23T03:39:22.703Z,1005.2
2018-12-23T03:40:24.746Z,1005.3
2018-12-23T03:41:26.787Z,1005.2
2018-12-23T03:42:28.951Z,1005.2
2018-12-23T03:43:30.990Z,1005.2
2018-12-23T03:44:33.116Z,1005.1
2018-12-23T03:45:35.167Z,1005.2
2018-12-23T03:46:37.213Z,1005.1
2018-12-23T03:47:39.256Z,1005.2
2018-12-23T03:48:41.727Z,1005.2
2018-12-23T03:49:43.773Z,1005.1
2018-12-23T03:50:45.870Z,1005.2
2018-12-23T03:51:47.911Z,1005.1
2018-12-23T03:52:49.979Z,1005.1
2018-12-23T03:53:52.604Z,1005.1
2018-12-23T03:54:54.644Z,1005.1
2018-12-23T03:55:56.697Z,1005.1
2018-12-23T03:56:59.129Z,1005.1
2018-12-23T03:58:01.852Z,1005.1
2018-12-23T03:59:03.912Z,1005.1
2018-12-23T04:00:05.952Z,1005.1
2018-12-23T04:01:08.697Z,1005.1
2018-12-23T04:02:10.745Z,1005.1
2018-12-23T04:03:13.497Z,1005.1
2018-12-23T04:04:15.534Z,1005.1
2018-12-23T04:05:17.851Z,1005.1
2018-12-23T04:06:25.172Z,1005.1
2018-12-23T04:07:27.260Z,1005.1
2018-12-23T04:08:29.302Z,1005.1
2018-12-23T04:09:31.631Z,1005.1
2018-12-23T04:10:33.666Z,1005.1
2018-12-23T04:11:35.717Z,1005.1
2018-12-23T04:12:37.857Z,1005
2018-12-23T04:13:40.305Z,1005
2018-12-23T04:14:42.352Z,1005
2018-12-23T04:15:44.702Z,1005
2018-12-23T04:16:46.744Z,1005
2018-12-23T04:17:48.806Z,1005.1
2018-12-23T04:18:51.152Z,1005
2018-12-23T04:19:53.506Z,1005
2018-12-23T04:20:55.568Z,1005
2018-12-23T04:21:57.622Z,1005
2018-12-23T04:22:59.669Z,1005
2018-12-23T04:24:02.000Z,1005
2018-12-23T04:25:04.355Z,1005
2018-12-23T04:26:06.691Z,1005
2018-12-23T04:27:08.774Z,1005
2018-12-23T04:28:10.818Z,1005
2018-12-23T04:29:12.872Z,1005
2018-12-23T04:30:14.979Z,1004.9
2018-12-23T04:31:17.076Z,1004.9
2018-12-23T04:32:19.419Z,1004.9
2018-12-23T04:33:21.937Z,1004.9
2018-12-23T04:34:24.261Z,1004.9
2018-12-23T04:35:26.374Z,1004.9
2018-12-23T04:36:34.562Z,1004.9
2018-12-23T04:37:37.013Z,1004.9
2018-12-23T04:38:39.377Z,1005
2018-12-23T04:39:41.701Z,1004.9
2018-12-23T04:40:43.754Z,1004.9
2018-12-23T04:41:45.804Z,1004.9
2018-12-23T04:42:47.912Z,1004.9
2018-12-23T04:43:50.234Z,1004.9
2018-12-23T04:44:52.281Z,1004.9
2018-12-23T04:45:54.333Z,1004.9
2018-12-23T04:46:56.671Z,1004.9
2018-12-23T04:47:59.037Z,1004.9
2018-12-23T04:49:01.065Z,1005
2018-12-23T04:50:03.137Z,1004.9
2018-12-23T04:51:05.511Z,1004.9
2018-12-23T04:52:07.576Z,1005
2018-12-23T04:53:10.203Z,1005
2018-12-23T04:54:12.531Z,1005
2018-12-23T04:55:14.576Z,1005
2018-12-23T04:56:17.030Z,1004.9
2018-12-23T04:57:19.405Z,1005
2018-12-23T04:58:21.763Z,1005
2018-12-23T04:59:24.230Z,1005
2018-12-23T05:00:26.268Z,1005
2018-12-23T05:01:28.617Z,1005
2018-12-23T05:02:30.772Z,1005
2018-12-23T05:03:43.273Z,1004.9
2018-12-23T05:04:45.954Z,1005
2018-12-23T05:05:47.989Z,1005
2018-12-23T05:06:50.046Z,1005
2018-12-23T05:07:52.120Z,1005.1
2018-12-23T05:08:54.274Z,1005
2018-12-23T05:09:56.310Z,1005
2018-12-23T05:10:58.358Z,1005
2018-12-23T05:12:00.421Z,1005
2018-12-23T05:13:02.782Z,1005
2018-12-23T05:14:04.825Z,1005
2018-12-23T05:15:07.172Z,1005
2018-12-23T05:16:09.495Z,1005
2018-12-23T05:17:11.538Z,1005
2018-12-23T05:18:13.586Z,1005
2018-12-23T05:19:15.613Z,1005
2018-12-23T05:20:17.636Z,1005
2018-12-23T05:21:19.680Z,1005
2018-12-23T05:22:21.737Z,1005.1
2018-12-23T05:23:23.785Z,1005
2018-12-23T05:24:25.820Z,1005.1
2018-12-23T05:25:28.154Z,1005.1
2018-12-23T05:26:30.192Z,1005
2018-12-23T05:27:32.239Z,1005
2018-12-23T05:28:34.281Z,1005
2018-12-23T05:29:36.332Z,1005
2018-12-23T05:30:38.454Z,1005
2018-12-23T05:31:40.514Z,1005.1
2018-12-23T05:32:42.562Z,1005
2018-12-23T05:33:44.628Z,1005
2018-12-23T05:34:46.967Z,1005
2018-12-23T05:35:49.316Z,1005
2018-12-23T05:36:52.983Z,1005
2018-12-23T05:37:55.038Z,1005
2018-12-23T05:38:57.756Z,1005
2018-12-23T05:39:59.935Z,1005
2018-12-23T05:41:02.020Z,1004.9
2018-12-23T05:42:04.087Z,1004.9
2018-12-23T05:43:06.450Z,1005
2018-12-23T05:44:08.507Z,1005
2018-12-23T05:45:10.870Z,1005
2018-12-23T05:46:12.942Z,1005
2018-12-23T05:47:15.005Z,1005
2018-12-23T05:48:17.079Z,1005.1
2018-12-23T05:49:19.396Z,1005.1
2018-12-23T05:50:21.443Z,1005.1
2018-12-23T05:51:23.503Z,1005
2018-12-23T05:52:25.535Z,1005
2018-12-23T05:53:27.573Z,1005
2018-12-23T05:54:29.634Z,1005
2018-12-23T05:55:31.954Z,1005
2018-12-23T05:56:34.021Z,1004.9
2018-12-23T05:57:36.094Z,1005
2018-12-23T05:58:38.144Z,1005
2018-12-23T05:59:40.187Z,1005
2018-12-23T06:00:42.238Z,1005
2018-12-23T06:01:44.261Z,1005
2018-12-23T06:02:46.301Z,1005
2018-12-23T06:03:48.365Z,1005
2018-12-23T06:04:50.410Z,1005
2018-12-23T06:05:52.443Z,1005
2018-12-23T06:07:01.310Z,1005
2018-12-23T06:08:03.374Z,1005
2018-12-23T06:09:05.989Z,1005.1
2018-12-23T06:10:08.066Z,1005
2018-12-23T06:11:10.113Z,1005
2018-12-23T06:12:12.167Z,1005
2018-12-23T06:13:14.212Z,1005.1
2018-12-23T06:14:16.271Z,1005
2018-12-23T06:15:18.417Z,1005
2018-12-23T06:16:20.498Z,1005.1
2018-12-23T06:17:22.566Z,1005
2018-12-23T06:18:25.004Z,1005.1
2018-12-23T06:19:27.355Z,1005.1
2018-12-23T06:20:29.962Z,1005.1
2018-12-23T06:21:32.036Z,1005.1
2018-12-23T06:22:34.405Z,1005.1
2018-12-23T06:23:37.013Z,1005.1
2018-12-23T06:24:39.060Z,1005.1
2018-12-23T06:25:41.101Z,1005
2018-12-23T06:26:43.158Z,1005.1
2018-12-23T06:27:45.196Z,1005
2018-12-23T06:28:47.244Z,1005.1
2018-12-23T06:29:49.296Z,1005.1
2018-12-23T06:30:51.355Z,1005.1
2018-12-23T06:31:53.397Z,1005.1
2018-12-23T06:32:55.478Z,1005.1
2018-12-23T06:33:57.879Z,1005.2
2018-12-23T06:34:59.922Z,1005.1
2018-12-23T06:36:02.013Z,1005.1
2018-12-23T06:37:10.529Z,1005.1
2018-12-23T06:38:12.854Z,1005.1
2018-12-23T06:39:14.916Z,1005.1
2018-12-23T06:40:16.968Z,1005.1
2018-12-23T06:41:19.005Z,1005.2
2018-12-23T06:42:21.052Z,1005.2
2018-12-23T06:43:23.100Z,1005.2
2018-12-23T06:44:25.160Z,1005.2
2018-12-23T06:45:27.579Z,1005.2
2018-12-23T06:46:29.620Z,1005.2
2018-12-23T06:47:31.679Z,1005.2
2018-12-23T06:48:35.871Z,1005.2
2018-12-23T06:49:37.918Z,1005.1
2018-12-23T06:50:39.964Z,1005.2
2018-12-23T06:51:42.586Z,1005.2
2018-12-23T06:52:44.628Z,1005.3
2018-12-23T06:53:46.685Z,1005.2
2018-12-23T06:54:50.762Z,1005.2
2018-12-23T06:55:52.898Z,1005.2
2018-12-23T06:56:54.943Z,1005.2
2018-12-23T06:57:56.984Z,1005.2
2018-12-23T06:58:59.036Z,1005.3
2018-12-23T07:00:01.086Z,1005.3
2018-12-23T07:01:03.154Z,1005.3
2018-12-23T07:02:05.233Z,1005.3
2018-12-23T07:03:07.307Z,1005.3
2018-12-23T07:04:09.631Z,1005.3
2018-12-23T07:05:11.685Z,1005.3
2018-12-23T07:06:13.837Z,1005.3
2018-12-23T07:07:19.123Z,1005.3
2018-12-23T07:08:21.852Z,1005.3
2018-12-23T07:09:23.895Z,1005.3
2018-12-23T07:10:25.947Z,1005.3
2018-12-23T07:11:28.008Z,1005.3
2018-12-23T07:12:30.056Z,1005.2
2018-12-23T07:13:32.135Z,1005.3
2018-12-23T07:14:34.248Z,1005.3
2018-12-23T07:15:36.303Z,1005.3
2018-12-23T07:16:38.626Z,1005.3
2018-12-23T07:17:40.678Z,1005.3
2018-12-23T07:18:42.724Z,1005.3
2018-12-23T07:19:45.079Z,1005.3
2018-12-23T07:20:47.170Z,1005.2
2018-12-23T07:21:49.226Z,1005.2
2018-12-23T07:22:51.277Z,1005.3
2018-12-23T07:23:53.319Z,1005.3
2018-12-23T07:24:55.376Z,1005.3
2018-12-23T07:25:57.731Z,1005.3
2018-12-23T07:26:59.801Z,1005.3
2018-12-23T07:28:01.855Z,1005.3
2018-12-23T07:29:03.906Z,1005.4
2018-12-23T07:30:05.944Z,1005.3
2018-12-23T07:31:08.386Z,1005.3
2018-12-23T07:32:10.814Z,1005.3
2018-12-23T07:33:12.869Z,1005.2
2018-12-23T07:34:15.207Z,1005.2
2018-12-23T07:35:17.238Z,1005.3
2018-12-23T07:36:19.294Z,1005.2
2018-12-23T07:37:28.020Z,1005.2
2018-12-23T07:38:30.075Z,1005.2
2018-12-23T07:39:32.118Z,1005.3
2018-12-23T07:40:34.459Z,1005.3
2018-12-23T07:41:36.889Z,1005.3
2018-12-23T07:42:38.931Z,1005.3
2018-12-23T07:43:40.973Z,1005.2
2018-12-23T07:44:43.042Z,1005.2
2018-12-23T07:45:45.095Z,1005.3
2018-12-23T07:46:47.417Z,1005.3
2018-12-23T07:47:49.473Z,1005.3
2018-12-23T07:48:51.527Z,1005.3
2018-12-23T07:49:53.568Z,1005.3
2018-12-23T07:50:55.998Z,1005.3
2018-12-23T07:51:58.326Z,1005.3
2018-12-23T07:53:00.372Z,1005.4
2018-12-23T07:54:02.417Z,1005.3
2018-12-23T07:55:04.466Z,1005.4
2018-12-23T07:56:06.521Z,1005.4
2018-12-23T07:57:08.584Z,1005.4
2018-12-23T07:58:10.651Z,1005.4
2018-12-23T07:59:12.718Z,1005.4
2018-12-23T08:00:14.759Z,1005.4
2018-12-23T08:01:17.108Z,1005.3
2018-12-23T08:02:19.148Z,1005.4
2018-12-23T08:03:21.196Z,1005.4
2018-12-23T08:04:23.320Z,1005.4
2018-12-23T08:05:25.740Z,1005.4
2018-12-23T08:06:27.775Z,1005.4
2018-12-23T08:07:36.525Z,1005.4
2018-12-23T08:08:38.583Z,1005.4
2018-12-23T08:09:41.003Z,1005.4
2018-12-23T08:10:43.061Z,1005.4
2018-12-23T08:11:45.117Z,1005.4
2018-12-23T08:12:47.158Z,1005.4
2018-12-23T08:13:49.286Z,1005.4
2018-12-23T08:14:51.727Z,1005.4
2018-12-23T08:15:53.778Z,1005.4
2018-12-23T08:16:55.818Z,1005.4
2018-12-23T08:17:58.165Z,1005.4
2018-12-23T08:19:00.209Z,1005.5
2018-12-23T08:20:02.658Z,1005.4
2018-12-23T08:21:04.694Z,1005.5
2018-12-23T08:22:07.044Z,1005.5
2018-12-23T08:23:09.420Z,1005.4
2018-12-23T08:24:11.473Z,1005.5
2018-12-23T08:25:13.536Z,1005.5
2018-12-23T08:26:15.590Z,1005.5
2018-12-23T08:27:17.662Z,1005.5
2018-12-23T08:28:19.705Z,1005.5
2018-12-23T08:29:21.766Z,1005.5
2018-12-23T08:30:24.216Z,1005.6
2018-12-23T08:31:26.559Z,1005.5
2018-12-23T08:32:28.643Z,1005.5
2018-12-23T08:33:31.027Z,1005.5
2018-12-23T08:34:33.110Z,1005.5
2018-12-23T08:35:35.176Z,1005.5
2018-12-23T08:36:37.526Z,1005.4
2018-12-23T08:37:44.948Z,1005.5
2018-12-23T08:38:47.113Z,1005.5
2018-12-23T08:39:49.174Z,1005.5
2018-12-23T08:40:51.509Z,1005.5
2018-12-23T08:41:53.563Z,1005.5
2018-12-23T08:42:55.658Z,1005.5
2018-12-23T08:43:57.717Z,1005.5
2018-12-23T08:44:59.756Z,1005.6
2018-12-23T08:46:02.127Z,1005.5
2018-12-23T08:47:04.470Z,1005.5
2018-12-23T08:48:06.819Z,1005.5
2018-12-23T08:49:08.889Z,1005.5
2018-12-23T08:50:11.248Z,1005.4
2018-12-23T08:51:13.603Z,1005.5
2018-12-23T08:52:15.659Z,1005.5
2018-12-23T08:53:17.717Z,1005.4
2018-12-23T08:54:20.152Z,1005.4
2018-12-23T08:55:22.479Z,1005.5
2018-12-23T08:56:24.809Z,1005.4
2018-12-23T08:57:26.869Z,1005.5
2018-12-23T08:58:28.948Z,1005.4
2018-12-23T08:59:30.992Z,1005.5
2018-12-23T09:00:33.062Z,1005.5
2018-12-23T09:01:35.140Z,1005.5
2018-12-23T09:02:37.187Z,1005.5
2018-12-23T09:03:39.228Z,1005.5
2018-12-23T09:04:41.281Z,1005.4
2018-12-23T09:05:43.732Z,1005.5
2018-12-23T09:06:45.805Z,1005.5
2018-12-23T09:07:53.378Z,1005.5
2018-12-23T09:08:55.717Z,1005.5
2018-12-23T09:09:57.759Z,1005.4
2018-12-23T09:10:59.823Z,1005.4
2018-12-23T09:12:01.885Z,1005.4
2018-12-23T09:13:03.935Z,1005.4
2018-12-23T09:14:05.978Z,1005.5
2018-12-23T09:15:08.312Z,1005.4
2018-12-23T09:16:10.354Z,1005.5
2018-12-23T09:17:12.414Z,1005.5
2018-12-23T09:18:19.760Z,1005.5
2018-12-23T09:19:22.104Z,1005.5
2018-12-23T09:20:24.153Z,1005.5
2018-12-23T09:21:26.185Z,1005.4
2018-12-23T09:22:28.226Z,1005.4
2018-12-23T09:23:30.271Z,1005.4
2018-12-23T09:24:32.319Z,1005.4
2018-12-23T09:25:34.763Z,1005.4
2018-12-23T09:26:36.809Z,1005.4
2018-12-23T09:27:38.851Z,1005.4
2018-12-23T09:28:40.902Z,1005.4
2018-12-23T09:29:42.945Z,1005.4
2018-12-23T09:30:44.996Z,1005.4
2018-12-23T09:31:47.052Z,1005.3
2018-12-23T09:32:49.682Z,1005.4
2018-12-23T09:33:51.736Z,1005.4
2018-12-23T09:34:53.781Z,1005.4
2018-12-23T09:35:55.823Z,1005.4
2018-12-23T09:36:58.160Z,1005.4
2018-12-23T09:38:01.950Z,1005.3
2018-12-23T09:39:04.403Z,1005.4
2018-12-23T09:40:07.023Z,1005.3
2018-12-23T09:41:09.455Z,1005.4
2018-12-23T09:42:11.506Z,1005.4
2018-12-23T09:43:15.150Z,1005.4
2018-12-23T09:44:17.189Z,1005.4
2018-12-23T09:45:19.244Z,1005.4
2018-12-23T09:46:21.648Z,1005.4
2018-12-23T09:47:23.730Z,1005.3
2018-12-23T09:48:25.768Z,1005.4
2018-12-23T09:49:28.091Z,1005.4
2018-12-23T09:50:30.433Z,1005.3
2018-12-23T09:51:32.464Z,1005.3
2018-12-23T09:52:34.491Z,1005.3
2018-12-23T09:53:36.543Z,1005.3
2018-12-23T09:54:38.859Z,1005.4
2018-12-23T09:55:41.018Z,1005.3
2018-12-23T09:56:43.070Z,1005.3
2018-12-23T09:57:45.120Z,1005.3
2018-12-23T09:58:47.164Z,1005.3
2018-12-23T09:59:49.188Z,1005.4
2018-12-23T10:00:51.231Z,1005.4
2018-12-23T10:01:53.269Z,1005.3
2018-12-23T10:02:55.315Z,1005.3
2018-12-23T10:03:57.371Z,1005.3
2018-12-23T10:04:59.419Z,1005.3
2018-12-23T10:06:01.528Z,1005.3
2018-12-23T10:07:03.882Z,1005.3
2018-12-23T10:08:10.571Z,1005.2
2018-12-23T10:09:12.748Z,1005.2
2018-12-23T10:10:14.822Z,1005.2
2018-12-23T10:11:16.905Z,1005.3
2018-12-23T10:12:19.016Z,1005.2
2018-12-23T10:13:21.153Z,1005.3
2018-12-23T10:14:23.394Z,1005.3
2018-12-23T10:15:25.739Z,1005.2
2018-12-23T10:16:27.873Z,1005.2
2018-12-23T10:17:30.086Z,1005.2
2018-12-23T10:18:32.156Z,1005.1
2018-12-23T10:19:34.345Z,1005.1
2018-12-23T10:20:36.471Z,1005.1
2018-12-23T10:21:38.567Z,1005.1
2018-12-23T10:22:41.104Z,1005.1
2018-12-23T10:23:43.486Z,1005.1
2018-12-23T10:24:45.986Z,1005.1
2018-12-23T10:25:48.384Z,1005.1
2018-12-23T10:26:50.733Z,1005
2018-12-23T10:27:52.980Z,1005.1
2018-12-23T10:28:55.488Z,1005.1
2018-12-23T10:29:58.043Z,1005.1
2018-12-23T10:31:00.557Z,1005
2018-12-23T10:32:03.058Z,1005
2018-12-23T10:33:05.751Z,1005
2018-12-23T10:34:08.416Z,1005
2018-12-23T10:35:11.148Z,1005
2018-12-23T10:36:13.837Z,1005.1
2018-12-23T10:37:16.724Z,1005
2018-12-23T10:38:19.364Z,1005
2018-12-23T10:39:21.783Z,1005
2018-12-23T10:40:24.453Z,1005
2018-12-23T10:41:27.169Z,1005
2018-12-23T10:42:29.639Z,1005
2018-12-23T10:43:32.052Z,1005
2018-12-23T10:44:34.702Z,1005
2018-12-23T10:45:37.434Z,1005
2018-12-23T10:46:40.045Z,1004.9
2018-12-23T10:47:42.888Z,1004.9
2018-12-23T10:48:45.468Z,1004.9
2018-12-23T10:49:48.221Z,1004.9
2018-12-23T10:50:50.981Z,1004.9
2018-12-23T10:51:53.659Z,1004.8
2018-12-23T10:52:56.496Z,1004.8
2018-12-23T10:53:59.621Z,1004.8
2018-12-23T10:55:02.907Z,1004.8
2018-12-23T10:56:05.877Z,1004.8
2018-12-23T10:57:08.496Z,1004.8
2018-12-23T10:58:11.393Z,1004.8
2018-12-23T10:59:14.500Z,1004.8
2018-12-23T11:00:17.013Z,1004.8
2018-12-23T11:01:19.887Z,1004.8
2018-12-23T11:02:22.533Z,1004.8
2018-12-23T11:03:25.893Z,1004.8
2018-12-23T11:04:28.496Z,1004.8
2018-12-23T11:05:31.239Z,1004.8
2018-12-23T11:06:33.288Z,1004.8
2018-12-23T11:07:35.344Z,1004.7
2018-12-23T11:08:37.394Z,1004.6
2018-12-23T11:09:39.452Z,1004.7
2018-12-23T11:10:41.524Z,1004.7
2018-12-23T11:11:43.590Z,1004.6
2018-12-23T11:12:45.914Z,1004.7
2018-12-23T11:13:47.965Z,1004.6
2018-12-23T11:14:50.017Z,1004.6
2018-12-23T11:15:52.068Z,1004.6
2018-12-23T11:16:54.206Z,1004.6
2018-12-23T11:17:56.260Z,1004.6
2018-12-23T11:18:58.324Z,1004.6
2018-12-23T11:20:00.378Z,1004.6
2018-12-23T11:21:02.419Z,1004.5
2018-12-23T11:22:04.476Z,1004.6
2018-12-23T11:23:06.607Z,1004.5
2018-12-23T11:24:08.958Z,1004.4
2018-12-23T11:25:11.276Z,1004.5
2018-12-23T11:26:13.577Z,1004.5
2018-12-23T11:27:15.653Z,1004.5
2018-12-23T11:28:17.703Z,1004.4
2018-12-23T11:29:20.031Z,1004.5
2018-12-23T11:30:22.059Z,1004.4
2018-12-23T11:31:24.382Z,1004.3
2018-12-23T11:32:26.426Z,1004.4
2018-12-23T11:33:28.464Z,1004.3
2018-12-23T11:34:30.628Z,1004.4
2018-12-23T11:35:32.668Z,1004.4
2018-12-23T11:36:35.286Z,1004.3
2018-12-23T11:37:37.336Z,1004.3
2018-12-23T11:38:39.487Z,1004.2
2018-12-23T11:39:41.927Z,1004.2
2018-12-23T11:40:43.992Z,1004.3
2018-12-23T11:41:46.038Z,1004.2
2018-12-23T11:42:48.087Z,1004.2
2018-12-23T11:43:50.142Z,1004.2
2018-12-23T11:44:52.196Z,1004.2
2018-12-23T11:45:54.251Z,1004.2
2018-12-23T11:46:56.309Z,1004.2
2018-12-23T11:47:58.385Z,1004.2
2018-12-23T11:49:00.432Z,1004.2
2018-12-23T11:50:02.756Z,1004.2
2018-12-23T11:51:07.035Z,1004.2
2018-12-23T11:52:09.092Z,1004.2
2018-12-23T11:53:11.133Z,1004.2
2018-12-23T11:54:13.179Z,1004.1
2018-12-23T11:55:15.235Z,1004.2
2018-12-23T11:56:17.319Z,1004.2
2018-12-23T11:57:19.374Z,1004.2
2018-12-23T11:58:21.806Z,1004.1
2018-12-23T11:59:23.950Z,1004.1
2018-12-23T12:00:25.995Z,1004.1
2018-12-23T12:01:28.042Z,1004.1
2018-12-23T12:02:30.103Z,1004
2018-12-23T12:03:32.156Z,1004.2
2018-12-23T12:04:34.206Z,1004
2018-12-23T12:05:36.770Z,1004.1
2018-12-23T12:06:38.820Z,1004.1
2018-12-23T12:07:41.248Z,1004.1
2018-12-23T12:08:44.164Z,1004.1
2018-12-23T12:09:46.503Z,1004.1
2018-12-23T12:10:48.555Z,1004.1
2018-12-23T12:11:51.307Z,1004.1
2018-12-23T12:12:53.363Z,1004.1
2018-12-23T12:13:55.408Z,1004
2018-12-23T12:14:57.475Z,1004.2
2018-12-23T12:15:59.511Z,1004.1
2018-12-23T12:17:01.550Z,1004.1
2018-12-23T12:18:03.599Z,1004.1
2018-12-23T12:19:05.661Z,1004.2
2018-12-23T12:20:07.723Z,1004.1
2018-12-23T12:21:09.796Z,1004.1
2018-12-23T12:22:11.838Z,1004.1
2018-12-23T12:23:13.896Z,1004
2018-12-23T12:24:15.966Z,1004
2018-12-23T12:25:18.030Z,1004
2018-12-23T12:26:20.086Z,1004
2018-12-23T12:27:22.152Z,1004
2018-12-23T12:28:24.184Z,1004.1
2018-12-23T12:29:26.232Z,1004
2018-12-23T12:30:28.266Z,1003.9
2018-12-23T12:31:30.295Z,1004
2018-12-23T12:32:32.634Z,1003.9
2018-12-23T12:33:34.684Z,1004
2018-12-23T12:34:37.114Z,1004
2018-12-23T12:35:39.134Z,1004
2018-12-23T12:36:41.182Z,1004
2018-12-23T12:37:43.505Z,1004.1
2018-12-23T12:38:52.538Z,1004
2018-12-23T12:39:54.705Z,1004
2018-12-23T12:40:56.776Z,1004
2018-12-23T12:41:59.102Z,1004
2018-12-23T12:43:01.427Z,1004
2018-12-23T12:44:03.851Z,1004
2018-12-23T12:45:05.904Z,1004
2018-12-23T12:46:08.231Z,1004
2018-12-23T12:47:10.270Z,1004
2018-12-23T12:48:12.379Z,1004
2018-12-23T12:49:14.409Z,1004
2018-12-23T12:50:16.744Z,1004
2018-12-23T12:51:18.801Z,1004.1
2018-12-23T12:52:20.858Z,1004
2018-12-23T12:53:22.898Z,1004
2018-12-23T12:54:24.951Z,1003.9
2018-12-23T12:55:27.056Z,1004
2018-12-23T12:56:29.097Z,1004
2018-12-23T12:57:31.129Z,1004
2018-12-23T12:58:33.468Z,1004
2018-12-23T12:59:35.920Z,1003.9
2018-12-23T13:00:38.244Z,1003.9
2018-12-23T13:01:40.281Z,1004
2018-12-23T13:02:42.335Z,1003.9
2018-12-23T13:03:44.370Z,1003.9
2018-12-23T13:04:46.417Z,1003.8
2018-12-23T13:05:48.444Z,1003.9